createdAt,value
2022-11-29T00:01:02.217Z,95143.31
2022-11-29T00:03:45.474Z,95141.09
2022-11-29T00:06:32.157Z,95136.44
2022-11-29T00:09:15.216Z,95142.25
2022-11-29T00:12:13.348Z,95141.44
2022-11-29T00:14:56.443Z,95146.84
2022-11-29T00:17:39.494Z,95146.13
2022-11-29T00:20:22.508Z,95154.47
2022-11-29T00:23:07.391Z,95151.03
2022-11-29T00:25:50.357Z,95157.53
2022-11-29T00:28:33.669Z,95150.25
2022-11-29T00:31:18.115Z,95155.88
2022-11-29T00:34:03.142Z,95157.94
2022-11-29T00:36:46.181Z,95154.81
2022-11-29T00:39:30.659Z,95155.63
2022-11-29T00:42:13.699Z,95158.13
2022-11-29T00:44:56.774Z,95153.22
2022-11-29T00:47:39.852Z,95146.84
2022-11-29T00:50:22.853Z,95157.09
2022-11-29T00:53:05.901Z,95160.00
2022-11-29T00:55:51.484Z,95150.81
2022-11-29T00:58:36.348Z,95157.31
2022-11-29T01:01:19.969Z,95154.47
2022-11-29T01:04:03.695Z,95149.78
2022-11-29T01:06:47.185Z,95152.19
2022-11-29T01:09:30.185Z,95143.50
2022-11-29T01:12:14.639Z,95137.81
2022-11-29T01:14:59.939Z,95134.09
2022-11-29T01:17:42.967Z,95139.34
2022-11-29T01:20:25.967Z,95143.63
2022-11-29T01:23:09.045Z,95134.59
2022-11-29T01:25:58.196Z,95140.06
2022-11-29T01:28:43.639Z,95137.84
2022-11-29T01:31:28.561Z,95137.34
2022-11-29T01:34:12.145Z,95136.06
2022-11-29T01:36:55.163Z,95128.09
2022-11-29T01:39:38.713Z,95127.03
2022-11-29T01:42:21.748Z,95123.03
2022-11-29T01:45:16.841Z,95128.00
2022-11-29T01:47:59.899Z,95127.63
2022-11-29T01:50:43.283Z,95124.97
2022-11-29T01:53:26.311Z,95125.03
2022-11-29T01:56:10.345Z,95111.44
2022-11-29T01:58:53.619Z,95113.84
2022-11-29T02:01:38.857Z,95110.25
2022-11-29T02:04:22.031Z,95115.56
2022-11-29T02:07:05.496Z,95108.75
2022-11-29T02:09:48.536Z,95103.19
2022-11-29T02:12:39.412Z,95108.75
2022-11-29T02:15:42.929Z,95107.97
2022-11-29T02:18:40.730Z,95105.44
2022-11-29T02:21:33.485Z,95103.69
2022-11-29T02:24:55.099Z,95102.75
2022-11-29T02:28:22.549Z,95101.53
2022-11-29T02:31:32.391Z,95107.97
2022-11-29T02:34:41.654Z,95109.19
2022-11-29T02:37:53.605Z,95112.03
2022-11-29T02:41:00.982Z,95117.31
2022-11-29T02:44:13.317Z,95117.38
2022-11-29T02:47:09.477Z,95112.88
2022-11-29T02:50:14.767Z,95117.97
2022-11-29T02:53:05.288Z,95114.06
2022-11-29T02:55:57.348Z,95113.91
2022-11-29T02:58:52.765Z,95116.09
2022-11-29T03:01:43.099Z,95114.81
2022-11-29T03:04:34.951Z,95113.31
2022-11-29T03:07:31.459Z,95107.13
2022-11-29T03:10:26.108Z,95111.91
2022-11-29T03:13:18.427Z,95114.47
2022-11-29T03:16:10.410Z,95103.38
2022-11-29T03:19:05.151Z,95118.56
2022-11-29T03:21:57.591Z,95119.75
2022-11-29T03:24:52.168Z,95122.25
2022-11-29T03:27:39.882Z,95120.69
2022-11-29T03:30:23.142Z,95121.66
2022-11-29T03:33:14.572Z,95125.03
2022-11-29T03:36:05.757Z,95125.38
2022-11-29T03:38:49.456Z,95124.56
2022-11-29T03:41:41.531Z,95126.75
2022-11-29T03:44:28.990Z,95129.03
2022-11-29T03:47:15.851Z,95130.38
2022-11-29T03:50:04.784Z,95132.09
2022-11-29T03:52:53.369Z,95138.63
2022-11-29T03:55:52.101Z,95129.03
2022-11-29T03:58:54.051Z,95129.84
2022-11-29T04:02:05.481Z,95118.78
2022-11-29T04:05:29.106Z,95124.34
2022-11-29T04:08:37.309Z,95128.69
2022-11-29T04:12:01.608Z,95123.84
2022-11-29T04:15:38.525Z,95128.13
2022-11-29T04:19:04.073Z,95129.25
2022-11-29T04:22:25.859Z,95136.91
2022-11-29T04:25:37.877Z,95137.16
2022-11-29T04:28:49.926Z,95140.22
2022-11-29T04:31:41.891Z,95140.72
2022-11-29T04:34:48.913Z,95138.50
2022-11-29T04:37:49.928Z,95131.06
2022-11-29T04:40:57.121Z,95133.56
2022-11-29T04:44:13.457Z,95139.00
2022-11-29T04:47:14.702Z,95138.00
2022-11-29T04:50:13.682Z,95136.88
2022-11-29T04:53:27.208Z,95125.81
2022-11-29T04:56:20.615Z,95129.41
2022-11-29T04:59:11.212Z,95133.94
2022-11-29T05:02:04.029Z,95136.56
2022-11-29T05:04:54.383Z,95137.81
2022-11-29T05:07:49.294Z,95134.16
2022-11-29T05:10:39.125Z,95129.19
2022-11-29T05:13:30.050Z,95126.03
2022-11-29T05:16:29.520Z,95125.25
2022-11-29T05:19:30.836Z,95128.66
2022-11-29T05:22:26.033Z,95134.75
2022-11-29T05:25:33.793Z,95138.16
2022-11-29T05:28:22.292Z,95136.91
2022-11-29T05:31:26.229Z,95137.09
2022-11-29T05:34:35.217Z,95139.88
2022-11-29T05:37:30.839Z,95136.50
2022-11-29T05:40:47.355Z,95144.53
2022-11-29T05:43:50.861Z,95138.59
2022-11-29T05:46:44.191Z,95144.06
2022-11-29T05:49:36.669Z,95146.25
2022-11-29T05:52:25.916Z,95145.13
2022-11-29T05:55:24.053Z,95143.09
2022-11-29T05:58:17.434Z,95143.38
2022-11-29T06:01:08.605Z,95141.63
2022-11-29T06:04:03.620Z,95140.28
2022-11-29T06:06:53.821Z,95139.94
2022-11-29T06:09:42.647Z,95144.84
2022-11-29T06:12:26.972Z,95134.91
2022-11-29T06:15:41.324Z,95130.66
2022-11-29T06:18:42.208Z,95136.34
2022-11-29T06:21:37.474Z,95139.88
2022-11-29T06:24:41.167Z,95139.53
2022-11-29T06:27:48.292Z,95145.03
2022-11-29T06:30:44.375Z,95144.31
2022-11-29T06:33:34.661Z,95144.06
2022-11-29T06:36:24.157Z,95142.09
2022-11-29T06:39:08.081Z,95132.44
2022-11-29T06:41:51.245Z,95139.72
2022-11-29T06:44:34.873Z,95131.44
2022-11-29T06:47:27.190Z,95142.38
2022-11-29T06:50:28.286Z,95140.38
2022-11-29T06:53:21.083Z,95137.81
2022-11-29T06:56:14.810Z,95143.44
2022-11-29T06:59:07.059Z,95152.78
2022-11-29T07:02:00.498Z,95144.00
2022-11-29T07:04:59.410Z,95151.28
2022-11-29T07:07:43.253Z,95147.09
2022-11-29T07:10:28.124Z,95136.72
2022-11-29T07:13:13.554Z,95145.06
2022-11-29T07:16:04.524Z,95149.38
2022-11-29T07:18:55.813Z,95142.19
2022-11-29T07:21:53.461Z,95151.59
2022-11-29T07:24:49.842Z,95148.66
2022-11-29T07:27:39.657Z,95153.06
2022-11-29T07:30:28.412Z,95153.41
2022-11-29T07:33:20.205Z,95162.56
2022-11-29T07:36:15.247Z,95155.06
2022-11-29T07:39:12.396Z,95160.78
2022-11-29T07:42:05.006Z,95164.13
2022-11-29T07:44:57.425Z,95163.28
2022-11-29T07:47:40.412Z,95162.91
2022-11-29T07:50:23.571Z,95160.78
2022-11-29T07:53:06.684Z,95161.44
2022-11-29T07:55:51.337Z,95165.41
2022-11-29T07:58:34.419Z,95152.69
2022-11-29T08:01:17.533Z,95159.06
2022-11-29T08:04:00.606Z,95152.69
2022-11-29T08:06:43.706Z,95164.66
2022-11-29T08:09:26.741Z,95166.03
2022-11-29T08:12:11.215Z,95166.47
2022-11-29T08:14:54.347Z,95170.31
2022-11-29T08:17:38.203Z,95165.38
2022-11-29T08:20:21.506Z,95157.19
2022-11-29T08:23:04.550Z,95159.16
2022-11-29T08:25:48.508Z,95166.59
2022-11-29T08:28:32.899Z,95168.47
2022-11-29T08:31:15.926Z,95154.34
2022-11-29T08:33:58.915Z,95157.38
2022-11-29T08:36:41.924Z,95157.19
2022-11-29T08:39:25.154Z,95156.81
2022-11-29T08:42:08.304Z,95161.25
2022-11-29T08:44:52.771Z,95162.28
2022-11-29T08:47:38.563Z,95164.69
2022-11-29T08:50:21.584Z,95161.59
2022-11-29T08:53:21.568Z,95166.03
2022-11-29T08:56:23.553Z,95166.44
2022-11-29T08:59:08.043Z,95163.59
2022-11-29T09:01:52.456Z,95172.28
2022-11-29T09:04:35.489Z,95163.09
2022-11-29T09:07:18.613Z,95152.97
2022-11-29T09:10:05.088Z,95155.13
2022-11-29T09:12:49.691Z,95152.66
2022-11-29T09:15:32.710Z,95154.63
2022-11-29T09:18:17.223Z,95140.88
2022-11-29T09:21:00.737Z,95146.25
2022-11-29T09:23:45.065Z,95140.78
2022-11-29T09:26:29.956Z,95145.50
2022-11-29T09:29:12.973Z,95144.94
2022-11-29T09:31:56.067Z,95150.72
2022-11-29T09:34:42.372Z,95135.56
2022-11-29T09:37:25.477Z,95130.47
2022-11-29T09:40:15.571Z,95126.13
2022-11-29T09:43:03.857Z,95125.53
2022-11-29T09:45:51.226Z,95126.28
2022-11-29T09:49:00.196Z,95119.94
2022-11-29T09:51:56.626Z,95111.94
2022-11-29T09:54:49.288Z,95110.72
2022-11-29T09:57:33.757Z,95114.97
2022-11-29T10:00:20.125Z,95109.81
2022-11-29T10:03:11.319Z,95106.16
2022-11-29T10:06:01.107Z,95105.78
2022-11-29T10:08:51.289Z,95106.25
2022-11-29T10:11:38.326Z,95098.66
2022-11-29T10:14:26.114Z,95089.94
2022-11-29T10:17:21.420Z,95087.19
2022-11-29T10:20:11.683Z,95087.34
2022-11-29T10:22:58.240Z,95085.47
2022-11-29T10:25:47.115Z,95089.31
2022-11-29T10:28:32.856Z,95085.16
2022-11-29T10:31:22.700Z,95087.13
2022-11-29T10:34:14.004Z,95090.16
2022-11-29T10:36:59.949Z,95084.00
2022-11-29T10:39:47.922Z,95077.03
2022-11-29T10:42:53.136Z,95088.34
2022-11-29T10:45:40.029Z,95080.34
2022-11-29T10:48:26.097Z,95083.88
2022-11-29T10:51:17.305Z,95079.13
2022-11-29T10:54:13.342Z,95078.38
2022-11-29T10:56:57.661Z,95084.78
2022-11-29T10:59:42.446Z,95075.50
2022-11-29T11:02:25.646Z,95070.66
2022-11-29T11:05:18.616Z,95068.47
2022-11-29T11:08:05.510Z,95067.88
2022-11-29T11:10:58.630Z,95066.94
2022-11-29T11:13:44.512Z,95069.16
2022-11-29T11:16:34.193Z,95065.81
2022-11-29T11:19:28.443Z,95063.38
2022-11-29T11:22:22.513Z,95072.34
2022-11-29T11:25:08.237Z,95066.25
2022-11-29T11:27:51.523Z,95075.16
2022-11-29T11:30:34.732Z,95069.81
2022-11-29T11:33:22.273Z,95079.56
2022-11-29T11:36:12.831Z,95083.09
2022-11-29T11:38:58.474Z,95078.75
2022-11-29T11:42:01.662Z,95081.34
2022-11-29T11:44:49.876Z,95082.22
2022-11-29T11:47:36.991Z,95088.50
2022-11-29T11:50:28.978Z,95077.97
2022-11-29T11:53:22.157Z,95074.97
2022-11-29T11:56:07.740Z,95068.59
2022-11-29T11:58:54.625Z,95075.59
2022-11-29T12:01:39.802Z,95084.31
2022-11-29T12:04:25.770Z,95078.69
2022-11-29T12:07:45.023Z,95082.16
2022-11-29T12:10:31.586Z,95081.34
2022-11-29T12:13:19.490Z,95070.03
2022-11-29T12:16:10.956Z,95071.38
2022-11-29T12:18:59.148Z,95059.94
2022-11-29T12:21:47.532Z,95060.28
2022-11-29T12:24:38.000Z,95059.91
2022-11-29T12:27:21.190Z,95070.16
2022-11-29T12:30:07.421Z,95061.09
2022-11-29T12:33:09.739Z,95070.97
2022-11-29T12:36:08.375Z,95071.38
2022-11-29T12:39:05.071Z,95070.09
2022-11-29T12:41:58.324Z,95067.72
2022-11-29T12:44:52.192Z,95066.97
2022-11-29T12:47:52.436Z,95069.44
2022-11-29T12:50:46.559Z,95064.66
2022-11-29T12:53:51.559Z,95067.66
2022-11-29T12:56:38.528Z,95068.50
2022-11-29T12:59:36.436Z,95061.81
2022-11-29T13:02:31.363Z,95062.78
2022-11-29T13:05:24.459Z,95063.78
2022-11-29T13:08:32.428Z,95073.66
2022-11-29T13:11:22.687Z,95081.47
2022-11-29T13:14:41.616Z,95077.59
2022-11-29T13:17:28.605Z,95071.25
2022-11-29T13:20:24.853Z,95079.59
2022-11-29T13:23:20.783Z,95086.72
2022-11-29T13:26:08.698Z,95091.50
2022-11-29T13:28:53.029Z,95083.78
2022-11-29T13:31:37.919Z,95085.63
2022-11-29T13:34:25.830Z,95090.09
2022-11-29T13:37:16.453Z,95091.66
2022-11-29T13:40:06.474Z,95090.03
2022-11-29T13:42:57.952Z,95089.91
2022-11-29T13:45:46.491Z,95084.81
2022-11-29T13:48:36.257Z,95094.88
2022-11-29T13:51:30.020Z,95094.84
2022-11-29T13:54:29.223Z,95091.84
2022-11-29T13:57:13.474Z,95094.00
2022-11-29T13:59:56.574Z,95094.44
2022-11-29T14:02:39.719Z,95094.84
2022-11-29T14:05:27.294Z,95095.88
2022-11-29T14:08:42.187Z,95100.63
2022-11-29T14:11:38.684Z,95101.81
2022-11-29T14:14:27.241Z,95095.47
2022-11-29T14:17:36.054Z,95101.69
2022-11-29T14:20:58.727Z,95097.91
2022-11-29T14:23:44.311Z,95104.81
2022-11-29T14:26:30.612Z,95103.00
2022-11-29T14:29:56.574Z,95094.16
2022-11-29T14:32:51.007Z,95099.31
2022-11-29T14:35:40.739Z,95100.09
2022-11-29T14:38:33.615Z,95102.22
2022-11-29T14:41:28.729Z,95093.28
2022-11-29T14:44:19.773Z,95095.69
2022-11-29T14:47:06.129Z,95104.69
2022-11-29T14:49:49.329Z,95117.56
2022-11-29T14:52:34.908Z,95110.91
2022-11-29T14:55:32.514Z,95108.97
2022-11-29T14:58:23.572Z,95114.69
2022-11-29T15:01:11.021Z,95113.00
2022-11-29T15:03:56.421Z,95113.47
2022-11-29T15:06:46.200Z,95110.53
2022-11-29T15:09:35.610Z,95109.84
2022-11-29T15:12:22.880Z,95109.19
2022-11-29T15:15:22.160Z,95111.00
2022-11-29T15:18:28.310Z,95114.28
2022-11-29T15:21:26.517Z,95100.28
2022-11-29T15:24:13.743Z,95105.69
2022-11-29T15:26:58.183Z,95103.81
2022-11-29T15:29:41.283Z,95110.31
2022-11-29T15:32:30.471Z,95101.09
2022-11-29T15:35:18.925Z,95102.69
2022-11-29T15:38:02.467Z,95105.34
2022-11-29T15:40:53.025Z,95102.22
2022-11-29T15:43:38.602Z,95114.56
2022-11-29T15:46:23.035Z,95105.09
2022-11-29T15:49:24.848Z,95108.97
2022-11-29T15:52:18.446Z,95110.03
2022-11-29T15:55:06.582Z,95115.44
2022-11-29T15:57:52.199Z,95110.66
2022-11-29T16:00:35.468Z,95112.34
2022-11-29T16:03:25.341Z,95104.19
2022-11-29T16:06:24.586Z,95111.00
2022-11-29T16:09:10.824Z,95105.88
2022-11-29T16:11:54.098Z,95112.19
2022-11-29T16:14:37.261Z,95112.34
2022-11-29T16:17:21.707Z,95112.00
2022-11-29T16:20:24.813Z,95112.59
2022-11-29T16:23:14.775Z,95114.56
2022-11-29T16:26:01.681Z,95116.25
2022-11-29T16:28:47.387Z,95113.22
2022-11-29T16:31:34.109Z,95114.28
2022-11-29T16:34:27.632Z,95117.50
2022-11-29T16:37:17.915Z,95110.41
2022-11-29T16:40:03.243Z,95116.06
2022-11-29T16:43:06.913Z,95120.31
2022-11-29T16:45:50.073Z,95107.25
2022-11-29T16:48:38.150Z,95108.56
2022-11-29T16:51:25.912Z,95110.13
2022-11-29T16:54:25.006Z,95108.81
2022-11-29T16:57:12.069Z,95109.19
2022-11-29T16:59:55.130Z,95116.84
2022-11-29T17:02:38.317Z,95111.53
2022-11-29T17:05:21.445Z,95104.78
2022-11-29T17:08:04.701Z,95104.78
2022-11-29T17:10:47.888Z,95104.13
2022-11-29T17:13:32.345Z,95103.56
2022-11-29T17:16:17.296Z,95104.03
2022-11-29T17:19:00.335Z,95105.88
2022-11-29T17:21:43.474Z,95108.53
2022-11-29T17:24:26.644Z,95104.09
2022-11-29T17:27:09.950Z,95110.22
2022-11-29T17:29:54.495Z,95110.22
2022-11-29T17:32:37.988Z,95112.88
2022-11-29T17:35:21.061Z,95112.59
2022-11-29T17:38:04.130Z,95123.59
2022-11-29T17:40:47.150Z,95122.00
2022-11-29T17:43:30.160Z,95122.47
2022-11-29T17:46:17.110Z,95126.81
2022-11-29T17:49:01.435Z,95126.72
2022-11-29T17:51:53.044Z,95138.06
2022-11-29T17:54:36.526Z,95135.41
2022-11-29T17:57:19.925Z,95135.56
2022-11-29T18:00:06.384Z,95141.19
2022-11-29T18:02:50.885Z,95138.81
2022-11-29T18:05:34.909Z,95139.84
2022-11-29T18:08:18.099Z,95138.94
2022-11-29T18:11:05.239Z,95134.78
2022-11-29T18:13:48.880Z,95145.94
2022-11-29T18:16:34.091Z,95145.94
2022-11-29T18:19:20.930Z,95153.94
2022-11-29T18:22:04.045Z,95149.94
2022-11-29T18:24:47.095Z,95151.09
2022-11-29T18:27:30.746Z,95148.59
2022-11-29T18:30:14.324Z,95148.34
2022-11-29T18:32:58.208Z,95144.69
2022-11-29T18:35:42.765Z,95143.81
2022-11-29T18:38:25.824Z,95144.59
2022-11-29T18:41:09.896Z,95145.75
2022-11-29T18:43:59.019Z,95143.00
2022-11-29T18:46:44.240Z,95141.16
2022-11-29T18:49:27.216Z,95143.84
2022-11-29T18:52:11.840Z,95139.03
2022-11-29T18:54:55.298Z,95135.81
2022-11-29T18:57:38.602Z,95131.06
2022-11-29T19:00:22.255Z,95129.97
2022-11-29T19:03:05.327Z,95125.81
2022-11-29T19:05:54.316Z,95123.31
2022-11-29T19:08:39.478Z,95130.09
2022-11-29T19:11:24.655Z,95141.44
2022-11-29T19:14:11.678Z,95130.34
2022-11-29T19:16:54.989Z,95140.97
2022-11-29T19:19:38.274Z,95147.84
2022-11-29T19:22:21.299Z,95134.69
2022-11-29T19:25:06.296Z,95139.13
2022-11-29T19:27:49.406Z,95140.38
2022-11-29T19:30:32.552Z,95147.16
2022-11-29T19:33:15.517Z,95151.94
2022-11-29T19:36:05.618Z,95158.41
2022-11-29T19:38:53.377Z,95154.41
2022-11-29T19:41:39.160Z,95149.97
2022-11-29T19:44:26.533Z,95150.31
2022-11-29T19:47:12.358Z,95145.97
2022-11-29T19:50:00.849Z,95153.16
2022-11-29T19:52:45.240Z,95156.09
2022-11-29T19:55:28.372Z,95154.47
2022-11-29T19:58:12.798Z,95165.16
2022-11-29T20:00:55.871Z,95155.09
2022-11-29T20:03:39.354Z,95156.84
2022-11-29T20:06:22.381Z,95167.72
2022-11-29T20:09:06.468Z,95158.78
2022-11-29T20:11:49.584Z,95154.69
2022-11-29T20:14:34.269Z,95153.72
2022-11-29T20:17:17.313Z,95149.44
2022-11-29T20:20:00.458Z,95150.25
2022-11-29T20:22:43.554Z,95143.56
2022-11-29T20:25:27.185Z,95149.88
2022-11-29T20:28:10.217Z,95137.91
2022-11-29T20:30:55.398Z,95136.19
2022-11-29T20:33:39.908Z,95132.78
2022-11-29T20:36:33.978Z,95134.59
2022-11-29T20:39:28.738Z,95135.53
2022-11-29T20:42:40.529Z,95126.72
2022-11-29T20:45:25.572Z,95133.56
2022-11-29T20:48:17.765Z,95139.97
2022-11-29T20:51:03.568Z,95135.75
2022-11-29T20:53:48.585Z,95126.34
2022-11-29T20:56:31.635Z,95131.91
2022-11-29T20:59:14.680Z,95132.53
2022-11-29T21:01:59.774Z,95127.66
2022-11-29T21:04:44.556Z,95132.88
2022-11-29T21:07:27.956Z,95125.94
2022-11-29T21:10:11.637Z,95122.91
2022-11-29T21:12:55.139Z,95115.69
2022-11-29T21:15:38.625Z,95116.44
2022-11-29T21:18:24.763Z,95114.69
2022-11-29T21:21:17.973Z,95106.97
2022-11-29T21:24:10.978Z,95117.88
2022-11-29T21:26:54.600Z,95129.03
2022-11-29T21:29:38.430Z,95121.63
2022-11-29T21:32:23.902Z,95130.66
2022-11-29T21:35:07.980Z,95123.19
2022-11-29T21:37:53.624Z,95123.00
2022-11-29T21:40:36.631Z,95117.38
2022-11-29T21:43:20.790Z,95116.47
2022-11-29T21:46:05.928Z,95118.50
2022-11-29T21:48:50.082Z,95117.88
2022-11-29T21:51:33.278Z,95111.34
2022-11-29T21:54:17.688Z,95116.63
2022-11-29T21:57:01.043Z,95119.31
2022-11-29T21:59:44.132Z,95117.00
2022-11-29T22:02:27.307Z,95112.22
2022-11-29T22:05:10.807Z,95114.81
2022-11-29T22:07:57.094Z,95101.56
2022-11-29T22:10:41.659Z,95099.13
2022-11-29T22:13:24.657Z,95107.00
2022-11-29T22:16:10.066Z,95113.13
2022-11-29T22:18:53.313Z,95097.69
2022-11-29T22:21:36.417Z,95101.31
2022-11-29T22:24:21.241Z,95095.13
2022-11-29T22:27:05.971Z,95092.81
2022-11-29T22:29:49.050Z,95091.84
2022-11-29T22:32:32.144Z,95098.84
2022-11-29T22:35:15.377Z,95090.25
2022-11-29T22:37:58.408Z,95084.28
2022-11-29T22:40:41.400Z,95077.56
2022-11-29T22:43:25.868Z,95087.75
2022-11-29T22:46:11.357Z,95080.28
2022-11-29T22:48:55.754Z,95082.03
2022-11-29T22:51:39.655Z,95081.56
2022-11-29T22:54:22.700Z,95082.78
2022-11-29T22:57:05.768Z,95076.25
2022-11-29T22:59:50.233Z,95080.13
2022-11-29T23:02:33.337Z,95074.66
2022-11-29T23:05:16.516Z,95077.94
2022-11-29T23:07:59.520Z,95078.28
2022-11-29T23:10:42.510Z,95077.84
2022-11-29T23:13:25.746Z,95075.38
2022-11-29T23:16:11.690Z,95084.38
2022-11-29T23:18:55.784Z,95080.50
2022-11-29T23:21:40.283Z,95078.66
2022-11-29T23:24:23.273Z,95083.34
2022-11-29T23:27:06.464Z,95079.25
2022-11-29T23:29:49.513Z,95080.75
2022-11-29T23:32:33.935Z,95074.31
2022-11-29T23:35:17.236Z,95077.75
2022-11-29T23:38:00.221Z,95076.88
2022-11-29T23:40:44.767Z,95078.19
2022-11-29T23:43:30.191Z,95079.16
2022-11-29T23:46:16.293Z,95076.16
2022-11-29T23:49:00.923Z,95076.97
2022-11-29T23:51:43.955Z,95068.38
2022-11-29T23:54:27.049Z,95070.72
2022-11-29T23:57:10.145Z,95080.44
2022-11-29T23:59:53.203Z,95072.34
